createdAt,value
2022-12-31T00:01:05.965Z,2.60
2022-12-31T00:03:32.474Z,3.10
2022-12-31T00:05:59.257Z,3.43
2022-12-31T00:08:25.771Z,1.73
2022-12-31T00:10:52.114Z,2.00
2022-12-31T00:13:18.672Z,1.73
2022-12-31T00:15:45.032Z,1.33
2022-12-31T00:18:11.534Z,1.67
2022-12-31T00:20:41.732Z,1.20
2022-12-31T00:23:08.915Z,1.80
2022-12-31T00:25:36.238Z,1.23
2022-12-31T00:28:03.508Z,1.10
2022-12-31T00:30:33.394Z,1.00
2022-12-31T00:32:59.699Z,1.27
2022-12-31T00:35:26.719Z,1.83
2022-12-31T00:37:53.594Z,1.70
2022-12-31T00:40:20.069Z,0.80
2022-12-31T00:42:46.386Z,1.63
2022-12-31T00:45:12.844Z,0.70
2022-12-31T00:47:39.241Z,2.67
2022-12-31T00:50:05.849Z,0.70
2022-12-31T00:52:32.207Z,0.60
2022-12-31T00:54:58.763Z,0.70
2022-12-31T00:57:25.372Z,1.27
2022-12-31T00:59:51.719Z,1.30
2022-12-31T01:02:18.411Z,1.50
2022-12-31T01:04:44.859Z,0.70
2022-12-31T01:07:11.196Z,2.57
2022-12-31T01:09:37.513Z,1.20
2022-12-31T01:12:04.000Z,0.97
2022-12-31T01:14:32.589Z,2.23
2022-12-31T01:16:59.201Z,1.07
2022-12-31T01:19:28.065Z,0.60
2022-12-31T01:21:55.213Z,1.07
2022-12-31T01:24:21.812Z,0.80
2022-12-31T01:26:48.943Z,1.10
2022-12-31T01:29:17.087Z,1.13
2022-12-31T01:31:43.609Z,1.93
2022-12-31T01:34:09.957Z,2.33
2022-12-31T01:36:36.847Z,2.37
2022-12-31T01:39:04.138Z,1.90
2022-12-31T01:41:33.522Z,1.73
2022-12-31T01:44:01.227Z,1.77
2022-12-31T01:46:42.922Z,1.47
2022-12-31T01:49:09.235Z,1.57
2022-12-31T01:51:36.243Z,2.20
2022-12-31T01:54:04.392Z,2.77
2022-12-31T01:56:30.904Z,1.60
2022-12-31T01:58:57.823Z,1.10
2022-12-31T02:01:32.759Z,1.40
2022-12-31T02:04:00.575Z,0.90
2022-12-31T02:06:33.554Z,1.23
2022-12-31T02:09:00.598Z,3.87
2022-12-31T02:11:29.301Z,1.90
2022-12-31T02:13:58.941Z,0.80
2022-12-31T02:16:34.718Z,1.33
2022-12-31T02:19:18.337Z,1.23
2022-12-31T02:21:55.749Z,0.83
2022-12-31T02:24:32.077Z,1.47
2022-12-31T02:27:01.426Z,1.13
2022-12-31T02:29:40.260Z,1.37
2022-12-31T02:32:16.052Z,1.73
2022-12-31T02:34:47.867Z,0.95
2022-12-31T02:37:14.920Z,0.80
2022-12-31T02:39:43.072Z,1.33
2022-12-31T02:42:10.379Z,1.23
2022-12-31T02:44:37.870Z,3.10
2022-12-31T02:47:07.286Z,0.70
2022-12-31T02:49:36.762Z,0.87
2022-12-31T02:52:10.824Z,2.80
2022-12-31T02:54:51.295Z,0.80
2022-12-31T02:57:26.474Z,1.13
2022-12-31T03:00:20.972Z,1.93
2022-12-31T03:02:48.299Z,1.60
2022-12-31T03:05:16.257Z,1.90
2022-12-31T03:07:43.763Z,0.80
2022-12-31T03:10:10.490Z,1.83
2022-12-31T03:12:46.564Z,1.43
2022-12-31T03:15:21.215Z,2.00
2022-12-31T03:17:59.415Z,1.00
2022-12-31T03:20:54.951Z,1.53
2022-12-31T03:23:23.824Z,1.30
2022-12-31T03:25:50.223Z,1.43
2022-12-31T03:28:18.116Z,1.37
2022-12-31T03:30:46.575Z,1.27
2022-12-31T03:33:14.080Z,1.47
2022-12-31T03:35:41.313Z,1.40
2022-12-31T03:38:07.896Z,1.20
2022-12-31T03:40:37.428Z,1.33
2022-12-31T03:43:03.751Z,1.00
2022-12-31T03:45:30.824Z,1.67
2022-12-31T03:47:57.152Z,1.57
2022-12-31T03:50:24.223Z,3.70
2022-12-31T03:52:51.073Z,1.17
2022-12-31T03:55:17.418Z,1.43
2022-12-31T03:57:43.743Z,1.63
2022-12-31T04:00:12.959Z,1.63
2022-12-31T04:02:39.376Z,0.60
2022-12-31T04:05:06.060Z,1.90
2022-12-31T04:07:32.520Z,0.97
2022-12-31T04:09:59.207Z,0.77
2022-12-31T04:12:27.891Z,0.93
2022-12-31T04:14:54.240Z,0.80
2022-12-31T04:17:20.844Z,3.87
2022-12-31T04:19:47.224Z,0.80
2022-12-31T04:22:13.729Z,1.77
2022-12-31T04:24:41.232Z,1.03
2022-12-31T04:27:08.219Z,1.03
2022-12-31T04:29:35.091Z,1.40
2022-12-31T04:32:01.587Z,1.20
2022-12-31T04:34:28.256Z,0.83
2022-12-31T04:36:54.718Z,1.63
2022-12-31T04:39:21.132Z,1.27
2022-12-31T04:41:47.606Z,2.27
2022-12-31T04:44:14.175Z,1.80
2022-12-31T04:46:40.468Z,3.50
2022-12-31T04:49:07.640Z,1.33
2022-12-31T04:51:33.976Z,1.53
2022-12-31T04:54:00.623Z,1.73
2022-12-31T04:56:27.551Z,0.87
2022-12-31T04:58:54.217Z,2.37
2022-12-31T05:01:20.706Z,5.00
2022-12-31T05:03:47.548Z,1.10
2022-12-31T05:06:15.125Z,1.50
2022-12-31T05:08:42.592Z,1.53
2022-12-31T05:11:08.956Z,2.23
2022-12-31T05:13:36.163Z,5.10
2022-12-31T05:16:02.919Z,1.33
2022-12-31T05:18:29.773Z,2.87
2022-12-31T05:20:56.095Z,1.20
2022-12-31T05:23:23.475Z,1.20
2022-12-31T05:25:49.774Z,1.30
2022-12-31T05:28:16.929Z,2.10
2022-12-31T05:30:43.640Z,1.77
2022-12-31T05:33:11.502Z,1.20
2022-12-31T05:35:37.899Z,0.83
2022-12-31T05:38:04.249Z,2.27
2022-12-31T05:40:30.617Z,1.87
2022-12-31T05:42:57.491Z,0.70
2022-12-31T05:45:30.155Z,2.43
2022-12-31T05:47:56.960Z,2.17
2022-12-31T05:50:23.228Z,1.03
2022-12-31T05:52:55.175Z,1.17
2022-12-31T05:55:21.506Z,1.70
2022-12-31T05:57:47.838Z,0.83
2022-12-31T06:00:14.750Z,2.00
2022-12-31T06:02:41.914Z,1.37
2022-12-31T06:05:08.628Z,1.00
2022-12-31T06:07:35.039Z,1.33
2022-12-31T06:10:04.482Z,2.40
2022-12-31T06:12:30.905Z,1.50
2022-12-31T06:14:57.230Z,1.10
2022-12-31T06:17:23.573Z,1.03
2022-12-31T06:19:49.888Z,0.80
2022-12-31T06:22:16.339Z,1.10
2022-12-31T06:24:42.663Z,1.43
2022-12-31T06:27:09.353Z,0.93
2022-12-31T06:29:35.669Z,1.80
2022-12-31T06:32:02.113Z,2.03
2022-12-31T06:34:28.526Z,8.17
2022-12-31T06:36:54.825Z,1.13
2022-12-31T06:39:21.422Z,0.90
2022-12-31T06:41:47.744Z,1.20
2022-12-31T06:44:14.889Z,1.03
2022-12-31T06:46:41.252Z,0.97
2022-12-31T06:49:07.743Z,1.73
2022-12-31T06:51:34.153Z,1.90
2022-12-31T06:54:00.478Z,0.80
2022-12-31T06:56:33.832Z,0.83
2022-12-31T06:59:01.168Z,0.80
2022-12-31T07:01:44.616Z,1.30
2022-12-31T07:04:11.147Z,1.53
2022-12-31T07:06:44.102Z,0.80
2022-12-31T07:09:11.645Z,1.57
2022-12-31T07:11:56.200Z,1.07
2022-12-31T07:14:25.531Z,2.90
2022-12-31T07:17:00.702Z,1.13
2022-12-31T07:19:34.237Z,1.37
2022-12-31T07:22:00.660Z,5.27
2022-12-31T07:24:27.228Z,0.87
2022-12-31T07:27:00.990Z,1.27
2022-12-31T07:29:34.895Z,1.23
2022-12-31T07:32:01.194Z,2.13
2022-12-31T07:34:37.846Z,0.70
2022-12-31T07:37:21.996Z,1.00
2022-12-31T07:39:57.222Z,1.17
2022-12-31T07:42:29.836Z,1.10
2022-12-31T07:45:14.930Z,1.77
2022-12-31T07:47:41.991Z,1.33
2022-12-31T07:50:13.884Z,1.80
2022-12-31T07:52:40.502Z,1.63
2022-12-31T07:55:07.043Z,1.93
2022-12-31T07:57:36.859Z,1.07
2022-12-31T08:00:08.326Z,9.43
2022-12-31T08:03:01.827Z,1.20
2022-12-31T08:05:33.941Z,1.10
2022-12-31T08:08:28.076Z,1.13
2022-12-31T08:11:04.529Z,1.37
2022-12-31T08:13:31.455Z,1.10
2022-12-31T08:15:57.961Z,2.23
2022-12-31T08:18:24.505Z,1.37
2022-12-31T08:21:09.727Z,0.73
2022-12-31T08:23:55.000Z,1.73
2022-12-31T08:26:30.334Z,7.40
2022-12-31T08:29:01.764Z,5.53
2022-12-31T08:31:47.689Z,2.00
2022-12-31T08:34:25.941Z,1.25
2022-12-31T08:36:55.197Z,1.50
2022-12-31T08:39:31.909Z,1.47
2022-12-31T08:41:58.767Z,2.10
2022-12-31T08:44:34.755Z,1.47
2022-12-31T08:47:12.680Z,2.13
2022-12-31T08:49:39.123Z,3.03
2022-12-31T08:52:12.766Z,1.97
2022-12-31T08:54:39.187Z,1.83
2022-12-31T08:57:18.497Z,1.97
2022-12-31T08:59:56.062Z,2.07
2022-12-31T09:02:47.737Z,2.80
2022-12-31T09:05:17.420Z,1.63
2022-12-31T09:07:58.728Z,1.90
2022-12-31T09:10:31.958Z,1.90
2022-12-31T09:13:16.839Z,2.87
2022-12-31T09:15:43.190Z,1.20
2022-12-31T09:18:11.584Z,2.90
2022-12-31T09:20:43.298Z,1.80
2022-12-31T09:23:12.006Z,2.40
2022-12-31T09:25:42.117Z,1.57
2022-12-31T09:28:13.972Z,2.03
2022-12-31T09:30:51.007Z,2.40
2022-12-31T09:33:29.625Z,2.00
2022-12-31T09:36:03.324Z,1.37
2022-12-31T09:38:47.717Z,1.70
2022-12-31T09:41:14.491Z,1.37
2022-12-31T09:44:01.465Z,1.40
2022-12-31T09:46:37.211Z,2.60
2022-12-31T09:49:22.511Z,0.95
2022-12-31T09:51:56.487Z,1.87
2022-12-31T09:54:41.623Z,1.87
2022-12-31T09:57:28.868Z,2.53
2022-12-31T10:00:14.348Z,2.77
2022-12-31T10:02:52.371Z,3.27
2022-12-31T10:05:27.874Z,2.07
2022-12-31T10:08:09.553Z,2.50
2022-12-31T10:10:50.172Z,1.43
2022-12-31T10:13:29.467Z,6.30
2022-12-31T10:16:14.688Z,0.93
2022-12-31T10:19:00.011Z,1.43
2022-12-31T10:21:26.260Z,2.70
2022-12-31T10:24:17.236Z,0.93
2022-12-31T10:26:54.750Z,3.53
2022-12-31T10:29:40.011Z,2.20
2022-12-31T10:32:15.254Z,1.47
2022-12-31T10:34:51.353Z,1.60
2022-12-31T10:37:19.642Z,1.80
2022-12-31T10:40:05.317Z,2.57
2022-12-31T10:42:58.084Z,2.03
2022-12-31T10:45:33.799Z,2.63
2022-12-31T10:48:16.574Z,1.80
2022-12-31T10:50:57.331Z,1.47
2022-12-31T10:53:42.745Z,3.57
2022-12-31T10:56:33.545Z,1.50
2022-12-31T10:58:59.833Z,1.13
2022-12-31T11:01:44.950Z,1.23
2022-12-31T11:04:23.021Z,1.80
2022-12-31T11:07:08.077Z,1.60
2022-12-31T11:09:37.371Z,1.10
2022-12-31T11:12:24.455Z,2.37
2022-12-31T11:15:09.394Z,1.70
2022-12-31T11:17:43.939Z,2.38
2022-12-31T11:20:20.713Z,1.77
2022-12-31T11:23:07.256Z,1.80
2022-12-31T11:25:52.470Z,1.63
2022-12-31T11:28:24.021Z,1.63
2022-12-31T11:31:09.173Z,2.37
2022-12-31T11:33:54.658Z,1.63
2022-12-31T11:36:44.294Z,1.67
2022-12-31T11:39:16.786Z,2.23
2022-12-31T11:41:49.417Z,2.07
2022-12-31T11:44:34.517Z,1.80
2022-12-31T11:47:19.734Z,2.03
2022-12-31T11:50:03.671Z,3.50
2022-12-31T11:52:41.832Z,3.03
2022-12-31T11:55:08.422Z,1.67
2022-12-31T11:57:38.535Z,1.20
2022-12-31T12:00:25.108Z,1.60
2022-12-31T12:02:59.119Z,2.10
2022-12-31T12:05:26.036Z,3.73
2022-12-31T12:07:53.187Z,2.33
2022-12-31T12:10:33.773Z,2.17
2022-12-31T12:13:11.134Z,1.23
2022-12-31T12:15:37.593Z,1.67
2022-12-31T12:18:08.281Z,2.60
2022-12-31T12:20:36.454Z,2.97
2022-12-31T12:23:12.948Z,1.37
2022-12-31T12:25:40.503Z,1.77
2022-12-31T12:28:25.981Z,1.37
2022-12-31T12:30:54.162Z,2.97
2022-12-31T12:33:20.610Z,1.70
2022-12-31T12:35:47.499Z,1.03
2022-12-31T12:38:15.704Z,2.27
2022-12-31T12:40:42.218Z,1.30
2022-12-31T12:43:21.805Z,1.27
2022-12-31T12:45:52.083Z,2.60
2022-12-31T12:48:29.781Z,1.30
2022-12-31T12:50:56.074Z,1.80
2022-12-31T12:53:36.855Z,3.57
2022-12-31T12:56:18.807Z,1.80
2022-12-31T12:59:00.495Z,2.50
2022-12-31T13:01:50.210Z,1.77
2022-12-31T13:04:34.573Z,2.37
2022-12-31T13:07:10.768Z,2.93
2022-12-31T13:09:37.033Z,1.40
2022-12-31T13:12:24.230Z,1.60
2022-12-31T13:15:03.885Z,1.10
2022-12-31T13:17:56.174Z,1.70
2022-12-31T13:20:45.273Z,2.90
2022-12-31T13:25:46.834Z,1.70
2022-12-31T13:28:15.294Z,2.30
2022-12-31T13:30:44.067Z,2.47
2022-12-31T13:33:18.251Z,1.80
2022-12-31T13:35:47.323Z,4.07
2022-12-31T13:38:15.304Z,1.17
2022-12-31T13:40:46.813Z,1.00
2022-12-31T13:43:16.595Z,2.10
2022-12-31T13:45:44.474Z,1.50
2022-12-31T13:48:16.221Z,0.97
2022-12-31T13:50:52.215Z,1.40
2022-12-31T13:53:22.563Z,1.70
2022-12-31T13:55:57.790Z,2.33
2022-12-31T13:58:37.086Z,1.43
2022-12-31T14:01:16.033Z,2.23
2022-12-31T14:03:48.892Z,2.10
2022-12-31T14:06:23.707Z,1.50
2022-12-31T14:08:51.814Z,1.23
2022-12-31T14:11:28.619Z,1.57
2022-12-31T14:14:06.453Z,1.07
2022-12-31T14:16:43.472Z,2.13
2022-12-31T14:19:21.364Z,1.43
2022-12-31T14:21:55.699Z,0.93
2022-12-31T14:24:40.852Z,0.90
2022-12-31T14:27:11.163Z,2.17
2022-12-31T14:29:43.336Z,1.37
2022-12-31T14:32:28.624Z,1.90
2022-12-31T14:35:13.997Z,1.07
2022-12-31T14:37:55.560Z,1.80
2022-12-31T14:40:28.876Z,3.17
2022-12-31T14:43:17.224Z,1.60
2022-12-31T14:46:02.781Z,1.47
2022-12-31T14:48:34.221Z,1.13
2022-12-31T14:51:01.829Z,0.93
2022-12-31T14:53:29.933Z,0.70
2022-12-31T14:55:57.847Z,1.10
2022-12-31T14:58:44.423Z,2.83
2022-12-31T15:01:18.757Z,0.75
2022-12-31T15:03:46.349Z,1.00
2022-12-31T15:06:33.450Z,1.07
2022-12-31T15:09:08.199Z,3.67
2022-12-31T15:11:53.807Z,3.20
2022-12-31T15:14:26.200Z,1.20
2022-12-31T15:16:59.119Z,3.90
2022-12-31T15:19:44.438Z,2.47
2022-12-31T15:22:16.760Z,2.07
2022-12-31T15:24:44.230Z,0.93
2022-12-31T15:27:21.659Z,1.43
2022-12-31T15:29:48.864Z,2.77
2022-12-31T15:32:17.748Z,2.20
2022-12-31T15:34:44.093Z,1.83
2022-12-31T15:37:29.321Z,2.40
2022-12-31T15:40:05.138Z,1.43
2022-12-31T15:42:45.864Z,1.75
2022-12-31T15:45:22.517Z,1.93
2022-12-31T15:47:52.346Z,1.70
2022-12-31T15:50:20.250Z,2.63
2022-12-31T15:52:52.209Z,1.47
2022-12-31T15:55:33.005Z,2.07
2022-12-31T15:58:19.633Z,2.10
2022-12-31T16:03:24.105Z,2.30
2022-12-31T16:05:51.137Z,1.73
2022-12-31T16:08:19.663Z,2.43
2022-12-31T16:10:46.402Z,2.53
2022-12-31T16:13:23.496Z,1.10
2022-12-31T16:15:51.586Z,2.30
2022-12-31T16:18:22.787Z,2.17
2022-12-31T16:20:51.726Z,1.07
2022-12-31T16:23:22.506Z,1.20
2022-12-31T16:25:49.446Z,2.60
2022-12-31T16:28:19.948Z,2.43
2022-12-31T16:30:54.720Z,3.33
2022-12-31T16:33:21.070Z,1.43
2022-12-31T16:35:54.293Z,2.93
2022-12-31T16:38:20.685Z,1.10
2022-12-31T16:41:02.706Z,2.90
2022-12-31T16:43:30.374Z,1.50
2022-12-31T16:45:58.494Z,2.43
2022-12-31T16:48:25.120Z,1.90
2022-12-31T16:50:53.558Z,2.97
2022-12-31T16:53:22.156Z,1.40
2022-12-31T16:55:54.123Z,2.70
2022-12-31T16:58:34.482Z,1.23
2022-12-31T17:01:14.650Z,1.43
2022-12-31T17:03:43.630Z,2.73
2022-12-31T17:06:11.930Z,1.80
2022-12-31T17:08:40.138Z,1.23
2022-12-31T17:11:23.092Z,3.37
2022-12-31T17:13:54.181Z,2.70
2022-12-31T17:16:20.750Z,1.93
2022-12-31T17:18:47.899Z,1.47
2022-12-31T17:21:14.433Z,5.40
2022-12-31T17:23:41.388Z,1.90
2022-12-31T17:26:12.030Z,2.17
2022-12-31T17:28:41.507Z,2.57
2022-12-31T17:31:26.578Z,2.00
2022-12-31T17:33:54.455Z,2.40
2022-12-31T17:36:22.360Z,3.83
2022-12-31T17:38:48.961Z,2.03
2022-12-31T17:41:17.052Z,2.90
2022-12-31T17:43:44.131Z,2.30
2022-12-31T17:46:15.012Z,5.03
2022-12-31T17:48:42.516Z,3.10
2022-12-31T17:51:08.966Z,4.97
2022-12-31T17:53:35.670Z,2.03
2022-12-31T17:56:03.781Z,3.50
2022-12-31T17:58:32.383Z,4.67
2022-12-31T18:00:59.198Z,3.30
2022-12-31T18:03:25.757Z,2.33
2022-12-31T18:05:52.609Z,1.73
2022-12-31T18:08:18.987Z,1.67
2022-12-31T18:10:45.528Z,3.30
2022-12-31T18:13:19.545Z,2.10
2022-12-31T18:15:45.816Z,2.50
2022-12-31T18:18:24.048Z,2.03
2022-12-31T18:20:52.878Z,3.23
2022-12-31T18:23:48.873Z,2.33
2022-12-31T18:26:16.471Z,3.03
2022-12-31T18:28:42.981Z,2.13
2022-12-31T18:31:22.794Z,1.80
2022-12-31T18:33:49.698Z,2.37
2022-12-31T18:36:17.224Z,1.77
2022-12-31T18:38:43.991Z,1.70
2022-12-31T18:41:24.262Z,3.43
2022-12-31T18:43:50.884Z,5.17
2022-12-31T18:46:19.815Z,4.93
2022-12-31T18:48:46.286Z,2.83
2022-12-31T18:51:13.950Z,2.80
2022-12-31T18:53:40.332Z,3.80
2022-12-31T18:56:10.826Z,3.87
2022-12-31T18:58:37.126Z,3.10
2022-12-31T19:01:03.534Z,4.03
2022-12-31T19:03:30.566Z,3.50
2022-12-31T19:05:57.004Z,2.00
2022-12-31T19:08:23.746Z,2.87
2022-12-31T19:10:50.929Z,3.17
2022-12-31T19:13:18.853Z,3.27
2022-12-31T19:15:46.664Z,2.87
2022-12-31T19:18:12.984Z,2.73
2022-12-31T19:20:39.852Z,5.07
2022-12-31T19:23:06.759Z,3.03
2022-12-31T19:25:34.165Z,1.80
2022-12-31T19:28:04.006Z,4.00
2022-12-31T19:30:31.838Z,2.97
2022-12-31T19:32:58.226Z,3.50
2022-12-31T19:35:24.800Z,2.23
2022-12-31T19:37:52.579Z,2.90
2022-12-31T19:40:23.519Z,2.50
2022-12-31T19:42:50.177Z,2.00
2022-12-31T19:45:18.445Z,4.07
2022-12-31T19:47:45.413Z,4.07
2022-12-31T19:50:13.396Z,3.77
2022-12-31T19:52:40.087Z,2.67
2022-12-31T19:55:06.955Z,4.37
2022-12-31T19:57:33.598Z,2.10
2022-12-31T20:00:00.050Z,2.40
2022-12-31T20:02:26.540Z,3.40
2022-12-31T20:04:52.990Z,2.37
2022-12-31T20:07:25.288Z,2.40
2022-12-31T20:09:53.704Z,2.07
2022-12-31T20:12:20.262Z,2.60
2022-12-31T20:14:46.584Z,2.13
2022-12-31T20:17:12.951Z,5.40
2022-12-31T20:19:39.460Z,3.10
2022-12-31T20:22:05.797Z,3.63
2022-12-31T20:24:32.146Z,2.83
2022-12-31T20:26:58.804Z,3.10
2022-12-31T20:29:25.415Z,5.30
2022-12-31T20:31:51.845Z,3.20
2022-12-31T20:34:18.438Z,2.67
2022-12-31T20:36:44.992Z,3.07
2022-12-31T20:39:11.381Z,3.73
2022-12-31T20:41:37.844Z,4.43
2022-12-31T20:44:04.362Z,2.67
2022-12-31T20:46:31.013Z,4.20
2022-12-31T20:49:01.587Z,3.03
2022-12-31T20:51:29.440Z,3.13
2022-12-31T20:53:57.905Z,3.37
2022-12-31T20:56:25.574Z,8.87
2022-12-31T20:58:52.075Z,7.90
2022-12-31T21:01:19.152Z,4.63
2022-12-31T21:06:33.896Z,3.13
2022-12-31T21:09:00.911Z,4.17
2022-12-31T21:11:46.064Z,5.43
2022-12-31T21:14:12.454Z,4.60
2022-12-31T21:16:38.767Z,5.10
2022-12-31T21:19:05.540Z,6.70
2022-12-31T21:21:32.039Z,3.07
2022-12-31T21:23:58.330Z,5.07
2022-12-31T21:26:24.665Z,5.40
2022-12-31T21:28:52.532Z,4.90
2022-12-31T21:31:18.953Z,3.50
2022-12-31T21:33:46.615Z,3.87
2022-12-31T21:36:13.487Z,2.83
2022-12-31T21:38:40.013Z,4.33
2022-12-31T21:41:07.204Z,3.83
2022-12-31T21:43:33.775Z,3.80
2022-12-31T21:46:04.063Z,3.33
2022-12-31T21:48:30.827Z,3.60
2022-12-31T21:51:13.119Z,3.77
2022-12-31T21:53:39.629Z,5.63
2022-12-31T21:56:09.214Z,5.27
2022-12-31T21:58:39.845Z,3.83
2022-12-31T22:01:25.716Z,3.50
2022-12-31T22:03:52.364Z,2.08
2022-12-31T22:06:23.212Z,6.50
2022-12-31T22:08:50.855Z,39.17
2022-12-31T22:11:17.822Z,17.20
2022-12-31T22:13:44.543Z,5.07
2022-12-31T22:16:11.234Z,4.00
2022-12-31T22:18:41.116Z,10.50
2022-12-31T22:21:17.432Z,7.73
2022-12-31T22:23:45.787Z,7.67
2022-12-31T22:26:13.752Z,14.57
2022-12-31T22:28:41.402Z,4.67
2022-12-31T22:31:10.087Z,6.93
2022-12-31T22:33:36.418Z,3.80
2022-12-31T22:36:07.090Z,2.17
2022-12-31T22:38:33.835Z,4.47
2022-12-31T22:41:04.623Z,2.23
2022-12-31T22:43:32.175Z,2.57
2022-12-31T22:46:05.209Z,3.27
2022-12-31T22:48:31.576Z,2.93
2022-12-31T22:50:57.890Z,3.17
2022-12-31T22:53:24.571Z,5.23
2022-12-31T22:55:53.103Z,4.37
2022-12-31T22:58:19.801Z,4.97
2022-12-31T23:00:46.945Z,9.10
2022-12-31T23:03:13.410Z,17.30
2022-12-31T23:05:39.765Z,37.60
2022-12-31T23:08:16.989Z,40.30
2022-12-31T23:10:59.823Z,44.03
2022-12-31T23:13:50.917Z,49.23
2022-12-31T23:16:37.138Z,58.10
2022-12-31T23:19:22.129Z,119.97
2022-12-31T23:22:07.354Z,70.97
2022-12-31T23:24:33.698Z,58.10
2022-12-31T23:27:00.122Z,46.30
2022-12-31T23:29:27.530Z,36.43
2022-12-31T23:31:54.101Z,45.50
2022-12-31T23:34:20.570Z,53.20
2022-12-31T23:36:46.955Z,39.70
2022-12-31T23:39:13.512Z,33.47
2022-12-31T23:41:39.882Z,31.97
2022-12-31T23:44:06.199Z,33.07
2022-12-31T23:46:32.543Z,26.93
2022-12-31T23:48:59.167Z,26.00
2022-12-31T23:51:25.673Z,14.73
2022-12-31T23:53:52.015Z,14.50
2022-12-31T23:56:23.654Z,13.50
2022-12-31T23:58:57.436Z,12.27
